Time;durP1;ratioP1;P1;durP2;ratioP2;P2;SDS_P1;SDS_P2;PMS_P1;PMS_P2;Temp;Humidity;BMP_temperature;BMP_pressure;BME280_temperature;BME280_humidity;BME280_pressure;Samples;Min_cycle;Max_cycle;Signal;HPM_P1;HPM_P2
2021/10/06 00:01:43;;;;;;;2.08;0.82;;;12.30;87.40;;;;;;5040652;28;20028;-71
2021/10/06 00:04:09;;;;;;;1.70;0.90;;;12.30;88.40;;;;;;5041369;28;20092;-71
2021/10/06 00:06:35;;;;;;;1.67;0.90;;;12.30;87.50;;;;;;5043578;28;20025;-71
2021/10/06 00:09:01;;;;;;;2.00;1.00;;;12.20;87.50;;;;;;5045489;28;20348;-71
2021/10/06 00:11:27;;;;;;;2.00;1.23;;;12.20;88.30;;;;;;5045515;28;20088;-71
2021/10/06 00:13:53;;;;;;;1.70;0.77;;;12.20;88.30;;;;;;5060684;28;20275;-71
2021/10/06 00:16:19;;;;;;;1.23;0.87;;;12.20;87.70;;;;;;5045104;28;20021;-71
2021/10/06 00:18:45;;;;;;;1.60;0.77;;;12.20;88.70;;;;;;5059757;28;20029;-71
2021/10/06 00:21:11;;;;;;;0.97;0.80;;;12.10;89.00;;;;;;5060767;28;20659;-71
2021/10/06 00:23:37;;;;;;;2.80;0.90;;;12.10;88.90;;;;;;5043838;28;20037;-71
2021/10/06 00:26:03;;;;;;;1.65;1.02;;;12.10;88.70;;;;;;5060771;28;20079;-71
2021/10/06 00:28:29;;;;;;;1.98;0.85;;;12.00;89.30;;;;;;5060418;28;20022;-71
2021/10/06 00:30:56;;;;;;;1.27;0.93;;;11.90;89.10;;;;;;5045076;28;20461;-71
2021/10/06 00:33:25;;;;;;;;;;;11.90;89.20;;;;;;5060335;28;20025;-71
2021/10/06 00:35:51;;;;;;;1.60;0.68;;;11.80;89.30;;;;;;5044954;28;19905;-71
2021/10/06 00:38:17;;;;;;;2.22;0.93;;;11.80;89.20;;;;;;5043629;28;20029;-71
2021/10/06 00:40:43;;;;;;;2.80;0.77;;;11.70;88.70;;;;;;5044836;28;20393;-71
2021/10/06 00:43:08;;;;;;;1.93;0.93;;;11.70;88.20;;;;;;5044573;28;20025;-71
2021/10/06 00:45:34;;;;;;;2.33;0.90;;;11.60;88.50;;;;;;5044871;28;20071;-71
2021/10/06 00:48:00;;;;;;;2.87;1.00;;;11.70;89.30;;;;;;5044431;28;20220;-71
2021/10/06 00:50:26;;;;;;;2.47;1.13;;;11.60;89.30;;;;;;5044800;28;20033;-71
2021/10/06 00:52:52;;;;;;;2.90;0.93;;;11.60;89.30;;;;;;5044508;28;20060;-71
2021/10/06 00:55:18;;;;;;;3.30;1.03;;;11.50;89.50;;;;;;5043555;28;20323;-71
2021/10/06 00:57:43;;;;;;;2.47;0.90;;;11.50;89.90;;;;;;5044735;28;20021;-71
2021/10/06 01:00:10;;;;;;;3.35;1.02;;;11.50;89.80;;;;;;5059973;28;20072;-71
2021/10/06 01:02:36;;;;;;;3.60;0.98;;;11.50;89.70;;;;;;5043219;28;20029;-71
2021/10/06 01:05:04;;;;;;;1.30;0.88;;;11.40;89.20;;;;;;5059773;28;20240;-71
2021/10/06 01:07:30;;;;;;;2.10;0.88;;;11.40;89.70;;;;;;5043281;28;20021;-71
2021/10/06 01:09:56;;;;;;;3.90;1.30;;;11.40;90.00;;;;;;5043375;28;20053;-71
2021/10/06 01:12:22;;;;;;;2.27;1.00;;;11.40;90.00;;;;;;5043313;28;20021;-71
2021/10/06 01:14:48;;;;;;;1.67;1.00;;;11.30;89.70;;;;;;5044178;28;20025;-71
2021/10/06 01:17:14;;;;;;;2.83;0.90;;;11.30;90.00;;;;;;5041836;28;20021;-71
2021/10/06 01:19:40;;;;;;;2.35;0.80;;;11.30;90.20;;;;;;5042739;28;20093;-71
2021/10/06 01:22:06;;;;;;;4.17;1.30;;;11.30;90.20;;;;;;5059677;28;20223;-71
2021/10/06 01:24:32;;;;;;;2.75;0.95;;;11.20;90.30;;;;;;5059597;28;20025;-71
2021/10/06 01:26:57;;;;;;;1.70;1.30;;;11.30;90.50;;;;;;5059761;28;20323;-71
2021/10/06 01:29:23;;;;;;;1.60;0.83;;;11.20;90.60;;;;;;5059736;28;20021;-71
2021/10/06 01:31:49;;;;;;;1.10;0.97;;;11.20;90.40;;;;;;5059735;28;20017;-71
2021/10/06 01:34:19;;;;;;;3.38;0.95;;;11.10;90.60;;;;;;5043596;28;20025;-71
2021/10/06 01:36:51;;;;;;;3.13;1.20;;;11.20;90.70;;;;;;5085566;22;20197;-73
2021/10/06 01:39:17;;;;;;;1.75;1.02;;;11.20;90.40;;;;;;5060616;28;20033;-72
2021/10/06 01:41:43;;;;;;;3.17;1.20;;;11.20;90.50;;;;;;5062910;28;20036;-72
2021/10/06 01:44:16;;;;;;;2.40;1.17;;;11.20;90.50;;;;;;5048210;28;20025;-72
2021/10/06 01:46:42;;;;;;;2.85;0.90;;;11.10;90.60;;;;;;5049127;28;20017;-72
2021/10/06 01:49:08;;;;;;;2.53;0.68;;;11.10;90.80;;;;;;5066159;28;20048;-71
2021/10/06 01:51:34;;;;;;;1.57;0.80;;;11.20;90.80;;;;;;5048796;28;20055;-72
2021/10/06 01:54:00;;;;;;;1.90;1.02;;;11.20;90.80;;;;;;5048106;28;20263;-73
2021/10/06 01:56:28;;;;;;;3.33;1.00;;;11.10;90.80;;;;;;5063328;28;20036;-72
2021/10/06 01:58:53;;;;;;;3.78;1.20;;;11.10;90.90;;;;;;5064013;28;20021;-72
2021/10/06 02:01:19;;;;;;;2.03;0.93;;;11.00;90.80;;;;;;5046178;28;20259;-73
2021/10/06 02:03:45;;;;;;;2.67;1.13;;;11.00;90.90;;;;;;5045989;28;20024;-72
2021/10/06 02:06:11;;;;;;;3.77;1.40;;;11.10;90.80;;;;;;5045975;28;20024;-72
2021/10/06 02:08:37;;;;;;;1.63;1.10;;;11.10;90.70;;;;;;5063289;28;20279;-72
2021/10/06 02:11:02;;;;;;;1.00;0.90;;;11.10;90.70;;;;;;5063608;28;20020;-72
2021/10/06 02:13:28;;;;;;;1.80;0.90;;;11.10;90.60;;;;;;5062133;28;20121;-73
2021/10/06 02:15:54;;;;;;;2.03;1.02;;;11.10;90.70;;;;;;5062350;28;20086;-72
2021/10/06 02:18:20;;;;;;;5.90;1.90;;;11.10;90.70;;;;;;5061651;28;20020;-72
2021/10/06 02:20:46;;;;;;;1.13;1.00;;;11.10;90.80;;;;;;5062081;28;20083;-73
2021/10/06 02:23:12;;;;;;;2.00;1.52;;;11.10;90.80;;;;;;5061691;28;20324;-73
2021/10/06 02:25:37;;;;;;;4.32;1.20;;;11.10;90.70;;;;;;5062118;28;20303;-72
2021/10/06 02:28:04;;;;;;;1.52;1.00;;;11.00;90.80;;;;;;5045459;28;20028;-72
2021/10/06 02:30:29;;;;;;;1.00;0.90;;;11.00;90.80;;;;;;5062158;28;20044;-72
2021/10/06 02:32:55;;;;;;;1.83;1.20;;;11.00;90.80;;;;;;5061754;28;20200;-71
2021/10/06 02:35:21;;;;;;;1.10;1.00;;;11.00;90.80;;;;;;5061878;28;20035;-73
2021/10/06 02:37:47;;;;;;;2.35;1.25;;;10.90;90.80;;;;;;5062662;28;20029;-72
2021/10/06 02:40:16;;;;;;;1.08;0.85;;;11.00;90.80;;;;;;5045242;28;20411;-73
2021/10/06 02:42:42;;;;;;;2.42;1.08;;;11.00;90.60;;;;;;5061786;28;20076;-73
2021/10/06 02:45:09;;;;;;;2.30;0.90;;;11.10;90.70;;;;;;5062548;28;20031;-72
2021/10/06 02:47:35;;;;;;;;;;;11.10;90.80;;;;;;5045620;28;20036;-72
2021/10/06 02:50:01;;;;;;;4.07;0.70;;;11.20;90.60;;;;;;5078410;28;20170;-72
2021/10/06 02:52:26;;;;;;;1.73;1.10;;;11.10;90.30;;;;;;5062634;28;20116;-72
2021/10/06 02:54:52;;;;;;;4.03;1.37;;;11.10;90.30;;;;;;5062598;28;20295;-72
2021/10/06 02:57:18;;;;;;;1.88;0.98;;;11.10;90.60;;;;;;5062569;28;20028;-72
2021/10/06 02:59:44;;;;;;;2.97;1.02;;;11.10;90.60;;;;;;5062564;28;20067;-72
2021/10/06 03:02:10;;;;;;;2.33;0.98;;;11.00;90.70;;;;;;5062483;28;20235;-72
2021/10/06 03:04:35;;;;;;;1.17;1.08;;;11.10;90.80;;;;;;5060552;28;20032;-72
2021/10/06 03:07:01;;;;;;;1.63;1.33;;;11.10;91.00;;;;;;5062380;28;20025;-72
2021/10/06 03:09:27;;;;;;;3.23;1.40;;;11.00;91.00;;;;;;5062371;28;20013;-72
2021/10/06 03:11:53;;;;;;;2.38;1.02;;;11.00;91.10;;;;;;5061295;28;20047;-72
2021/10/06 03:14:19;;;;;;;1.93;1.13;;;10.90;91.00;;;;;;5062088;28;20272;-72
2021/10/06 03:16:44;;;;;;;2.23;1.10;;;11.00;91.20;;;;;;5062242;28;20223;-72
2021/10/06 03:19:10;;;;;;;1.88;0.90;;;10.90;91.30;;;;;;5061695;28;20024;-71
2021/10/06 03:21:36;;;;;;;2.60;1.20;;;10.90;91.30;;;;;;5062213;28;20378;-72
2021/10/06 03:24:02;;;;;;;2.45;1.00;;;11.00;91.20;;;;;;5061763;28;20222;-72
2021/10/06 03:26:28;;;;;;;2.73;1.20;;;10.90;91.40;;;;;;5062237;28;20056;-73
2021/10/06 03:28:54;;;;;;;1.67;1.30;;;10.90;91.40;;;;;;5062162;28;20029;-73
2021/10/06 03:31:19;;;;;;;2.45;1.35;;;11.00;91.10;;;;;;5062125;28;20025;-72
2021/10/06 03:33:45;;;;;;;2.75;1.02;;;11.00;91.00;;;;;;5061760;28;20017;-72
2021/10/06 03:36:11;;;;;;;4.80;1.30;;;11.00;90.70;;;;;;5062440;28;20025;-73
2021/10/06 03:38:37;;;;;;;4.90;1.33;;;11.00;90.80;;;;;;5060628;28;20021;-71
2021/10/06 03:41:03;;;;;;;2.33;1.23;;;10.90;90.90;;;;;;5063247;28;20074;-72
2021/10/06 03:43:28;;;;;;;2.10;1.17;;;10.90;90.90;;;;;;5065993;28;20027;-73
2021/10/06 03:45:54;;;;;;;0.93;0.87;;;10.90;91.00;;;;;;5066129;28;20213;-72
2021/10/06 03:48:20;;;;;;;2.42;1.20;;;10.90;91.00;;;;;;5064779;28;20021;-72
2021/10/06 03:50:46;;;;;;;2.83;1.13;;;11.00;91.00;;;;;;5066047;28;20028;-72
2021/10/06 03:53:12;;;;;;;6.28;1.08;;;11.00;90.80;;;;;;5065513;28;20032;-72
2021/10/06 03:55:39;;;;;;;1.27;1.00;;;10.90;91.00;;;;;;5064939;28;20045;-73
2021/10/06 03:58:06;;;;;;;5.35;1.15;;;10.90;91.10;;;;;;5048162;28;20279;-72
2021/10/06 04:00:32;;;;;;;3.92;1.15;;;10.90;91.20;;;;;;5064669;28;20255;-71
2021/10/06 04:02:57;;;;;;;1.50;0.90;;;10.90;91.10;;;;;;5065608;28;20096;-71
2021/10/06 04:05:23;;;;;;;2.73;1.20;;;10.90;91.10;;;;;;5064775;28;20021;-72
2021/10/06 04:07:49;;;;;;;5.00;1.17;;;10.90;91.20;;;;;;5064458;28;20503;-72
2021/10/06 04:10:15;;;;;;;3.75;1.17;;;11.00;91.20;;;;;;5065711;28;20373;-72
2021/10/06 04:12:41;;;;;;;5.10;1.27;;;10.90;91.20;;;;;;5065767;28;20079;-72
2021/10/06 04:15:07;;;;;;;3.83;1.23;;;10.90;91.40;;;;;;5065391;28;20323;-72
2021/10/06 04:17:33;;;;;;;2.97;1.00;;;10.90;91.10;;;;;;5065486;28;20024;-72
2021/10/06 04:19:58;;;;;;;1.52;0.98;;;11.00;91.20;;;;;;5046922;28;20056;-72
2021/10/06 04:22:24;;;;;;;6.47;1.35;;;11.00;91.10;;;;;;5047946;28;20244;-72
2021/10/06 04:24:50;;;;;;;3.70;1.10;;;10.90;91.00;;;;;;5064082;28;20123;-72
2021/10/06 04:27:16;;;;;;;2.28;0.63;;;10.90;91.10;;;;;;5064307;28;20032;-72
2021/10/06 04:29:42;;;;;;;3.80;0.90;;;11.00;91.00;;;;;;5065386;28;20166;-72
2021/10/06 04:32:08;;;;;;;;;;;10.90;90.90;;;;;;5064764;28;20071;-72
2021/10/06 04:34:34;;;;;;;4.75;0.95;;;10.90;91.00;;;;;;5064731;28;19905;-71
2021/10/06 04:37:00;;;;;;;2.55;0.93;;;11.00;90.90;;;;;;5063832;28;20092;-72
2021/10/06 04:39:26;;;;;;;2.53;0.90;;;10.90;90.90;;;;;;5063872;28;20108;-72
2021/10/06 04:41:51;;;;;;;1.60;1.05;;;10.90;91.20;;;;;;5065114;28;20201;-72
2021/10/06 04:44:17;;;;;;;0.97;0.83;;;10.90;91.10;;;;;;5064669;28;20063;-71
2021/10/06 04:46:43;;;;;;;3.90;0.77;;;10.80;91.10;;;;;;5064874;28;20215;-72
2021/10/06 04:49:09;;;;;;;2.38;0.85;;;10.80;91.00;;;;;;5063582;28;20017;-72
2021/10/06 04:51:35;;;;;;;2.92;1.15;;;10.80;91.20;;;;;;5063866;28;20088;-72
2021/10/06 04:54:01;;;;;;;4.30;0.87;;;10.80;91.20;;;;;;5063923;28;20064;-71
2021/10/06 04:56:26;;;;;;;3.50;1.00;;;10.80;91.10;;;;;;5064933;28;20052;-72
2021/10/06 04:58:52;;;;;;;4.97;1.45;;;10.80;91.20;;;;;;5064470;28;20074;-72
2021/10/06 05:01:18;;;;;;;2.53;0.80;;;10.80;91.20;;;;;;5064678;28;20035;-72
2021/10/06 05:03:44;;;;;;;2.27;0.77;;;10.80;91.40;;;;;;5064411;28;20085;-72
2021/10/06 05:06:10;;;;;;;5.82;1.15;;;10.80;91.30;;;;;;5064806;28;20025;-72
2021/10/06 05:08:37;;;;;;;3.17;1.10;;;10.90;91.30;;;;;;5064570;28;20335;-72
2021/10/06 05:11:03;;;;;;;4.15;0.88;;;11.00;91.30;;;;;;5063438;28;20258;-72
2021/10/06 05:13:29;;;;;;;3.53;1.10;;;11.00;90.90;;;;;;5064237;28;20063;-72
2021/10/06 05:15:55;;;;;;;4.55;1.00;;;10.90;90.90;;;;;;5064555;28;20154;-72
2021/10/06 05:18:21;;;;;;;2.70;0.82;;;10.90;91.00;;;;;;5063548;28;20332;-72
2021/10/06 05:20:47;;;;;;;1.92;0.90;;;11.00;90.90;;;;;;5064366;28;20059;-72
2021/10/06 05:23:12;;;;;;;1.27;0.90;;;10.90;90.90;;;;;;5064126;28;20076;-72
2021/10/06 05:25:38;;;;;;;3.70;1.27;;;11.00;91.00;;;;;;5064364;28;20021;-73
2021/10/06 05:28:04;;;;;;;3.33;1.45;;;11.00;91.10;;;;;;5067548;28;20017;-72
2021/10/06 05:30:30;;;;;;;3.10;1.43;;;11.00;90.90;;;;;;5067314;28;20020;-71
2021/10/06 05:32:56;;;;;;;2.00;1.38;;;11.00;91.20;;;;;;5068091;28;20359;-71
2021/10/06 05:35:22;;;;;;;2.28;1.05;;;11.00;91.10;;;;;;5066210;28;20074;-71
2021/10/06 05:37:48;;;;;;;3.22;1.63;;;11.00;90.90;;;;;;5066348;28;20104;-71
2021/10/06 05:40:15;;;;;;;3.08;1.30;;;11.10;91.00;;;;;;5064927;28;20029;-71
2021/10/06 05:42:40;;;;;;;2.05;1.50;;;11.00;90.90;;;;;;5046607;28;20050;-71
2021/10/06 05:45:07;;;;;;;5.30;2.03;;;11.10;91.00;;;;;;5063793;28;20052;-71
2021/10/06 05:47:33;;;;;;;5.32;1.20;;;11.10;91.00;;;;;;5062902;28;20019;-71
2021/10/06 05:50:00;;;;;;;7.13;1.47;;;11.10;91.00;;;;;;5045766;28;20060;-71
2021/10/06 05:52:26;;;;;;;6.05;1.23;;;11.10;91.10;;;;;;5063918;28;20247;-71
2021/10/06 05:54:52;;;;;;;7.57;1.10;;;11.00;91.00;;;;;;5063521;28;20039;-71
2021/10/06 05:57:18;;;;;;;7.27;2.17;;;11.00;90.90;;;;;;5062557;28;20036;-71
2021/10/06 05:59:44;;;;;;;6.65;1.85;;;11.00;91.10;;;;;;5029370;28;20029;-71
2021/10/06 06:02:10;;;;;;;2.27;1.37;;;11.00;91.10;;;;;;5062522;28;20070;-71
2021/10/06 06:04:35;;;;;;;3.72;1.20;;;10.90;90.70;;;;;;5045097;28;20032;-71
2021/10/06 06:07:02;;;;;;;1.20;0.88;;;10.90;91.00;;;;;;5062311;28;20025;-72
2021/10/06 06:09:27;;;;;;;5.57;1.30;;;10.90;91.00;;;;;;5062233;28;20375;-72
2021/10/06 06:11:53;;;;;;;5.47;1.30;;;10.90;90.70;;;;;;5063403;28;20029;-72
2021/10/06 06:14:19;;;;;;;2.08;1.10;;;11.00;90.80;;;;;;5028918;28;20025;-72
2021/10/06 06:16:45;;;;;;;4.53;1.40;;;11.00;90.90;;;;;;5063122;28;20028;-71
2021/10/06 06:19:11;;;;;;;5.32;1.23;;;10.90;90.90;;;;;;5062467;28;20029;-72
2021/10/06 06:21:37;;;;;;;1.47;1.30;;;11.00;91.00;;;;;;5063099;28;20020;-72
2021/10/06 06:24:03;;;;;;;2.75;0.93;;;11.00;90.90;;;;;;5061761;28;20016;-71
2021/10/06 06:26:28;;;;;;;2.17;1.10;;;11.00;90.80;;;;;;5062839;28;20021;-71
2021/10/06 06:28:54;;;;;;;2.45;1.25;;;11.00;90.90;;;;;;5062841;28;20518;-71
2021/10/06 06:31:20;;;;;;;2.40;1.17;;;11.00;90.90;;;;;;5078544;28;20057;-71
2021/10/06 06:33:46;;;;;;;4.23;1.83;;;11.00;90.80;;;;;;5062406;28;20282;-73
2021/10/06 06:36:12;;;;;;;2.47;1.07;;;10.90;90.40;;;;;;5061450;28;20212;-72
2021/10/06 06:38:38;;;;;;;5.32;1.40;;;10.80;90.60;;;;;;5062350;28;20060;-72
2021/10/06 06:41:04;;;;;;;3.67;1.10;;;10.80;90.50;;;;;;5061646;28;20210;-72
2021/10/06 06:43:30;;;;;;;1.35;1.00;;;10.80;90.50;;;;;;5061368;28;20032;-72
2021/10/06 06:45:56;;;;;;;4.57;1.10;;;10.80;90.60;;;;;;5062725;28;20029;-72
2021/10/06 06:48:22;;;;;;;6.50;1.87;;;10.80;90.40;;;;;;5060561;28;20021;-71
2021/10/06 06:50:53;;;;;;;4.88;1.98;;;10.80;90.50;;;;;;5061951;28;20020;-71
2021/10/06 06:53:22;;;;;;;4.57;1.75;;;10.80;90.50;;;;;;5061200;28;20378;-73
2021/10/06 06:55:48;;;;;;;4.90;1.38;;;10.90;90.50;;;;;;5044290;28;20035;-73
2021/10/06 06:58:15;;;;;;;3.67;1.57;;;10.80;90.30;;;;;;5061342;28;20028;-73
2021/10/06 07:00:41;;;;;;;6.07;2.13;;;10.80;90.40;;;;;;5061192;28;20039;-74
2021/10/06 07:03:06;;;;;;;4.05;1.92;;;10.80;90.60;;;;;;5061530;28;20231;-74
2021/10/06 07:05:32;;;;;;;6.20;2.42;;;10.90;90.60;;;;;;5062198;28;20017;-73
2021/10/06 07:07:58;;;;;;;3.72;1.40;;;10.90;90.70;;;;;;5043914;28;20043;-73
2021/10/06 07:10:24;;;;;;;4.50;1.45;;;10.90;90.70;;;;;;5062365;28;20066;-72
2021/10/06 07:12:50;;;;;;;4.82;1.10;;;10.90;90.50;;;;;;5061950;28;20040;-71
2021/10/06 07:15:16;;;;;;;3.53;1.10;;;10.80;90.70;;;;;;5061675;28;20040;-67
2021/10/06 07:17:42;;;;;;;3.55;1.35;;;11.00;91.40;;;;;;5059744;28;20032;-67
2021/10/06 07:20:09;;;;;;;5.07;1.50;;;11.00;90.90;;;;;;5060048;28;20028;-67
2021/10/06 07:22:34;;;;;;;5.28;1.40;;;11.10;91.30;;;;;;5061061;28;20070;-68
2021/10/06 07:25:02;;;;;;;3.50;1.58;;;11.10;91.40;;;;;;5061917;28;20320;-68
2021/10/06 07:27:28;;;;;;;4.10;1.80;;;11.10;91.30;;;;;;5062161;28;20331;-71
2021/10/06 07:29:54;;;;;;;7.23;1.33;;;11.00;90.90;;;;;;5062315;28;20025;-71
2021/10/06 07:32:19;;;;;;;5.07;1.42;;;11.00;91.10;;;;;;5061904;28;20029;-72
2021/10/06 07:34:45;;;;;;;2.70;1.40;;;11.10;91.60;;;;;;5061420;28;20575;-72
2021/10/06 07:37:11;;;;;;;7.57;1.60;;;11.10;91.00;;;;;;5061542;28;20040;-72
2021/10/06 07:39:37;;;;;;;6.93;1.83;;;11.10;90.80;;;;;;5062818;28;20056;-70
2021/10/06 07:42:03;;;;;;;6.80;1.87;;;11.10;90.50;;;;;;5062664;28;20029;-70
2021/10/06 07:44:29;;;;;;;2.50;1.42;;;11.20;90.60;;;;;;5060583;28;20323;-70
2021/10/06 07:46:54;;;;;;;7.90;2.87;;;11.10;90.40;;;;;;5061855;28;20098;-70
2021/10/06 07:49:20;;;;;;;4.40;1.50;;;11.10;90.40;;;;;;5058244;28;20041;-70
2021/10/06 07:51:46;;;;;;;8.13;1.60;;;11.10;90.30;;;;;;5060608;28;20403;-70
2021/10/06 07:54:12;;;;;;;5.20;1.30;;;11.20;90.20;;;;;;5043721;28;20396;-70
2021/10/06 07:56:38;;;;;;;9.30;2.92;;;11.10;90.30;;;;;;5061633;28;20285;-71
2021/10/06 07:59:03;;;;;;;5.30;1.80;;;11.10;90.60;;;;;;5060749;28;20027;-70
2021/10/06 08:01:29;;;;;;;3.47;1.20;;;11.10;90.50;;;;;;5061696;28;20268;-70
2021/10/06 08:03:55;;;;;;;3.70;1.30;;;11.20;90.60;;;;;;5061281;28;20024;-70
2021/10/06 08:06:21;;;;;;;2.10;1.10;;;11.20;90.50;;;;;;5060499;28;20028;-70
2021/10/06 08:08:47;;;;;;;4.10;1.23;;;11.30;90.20;;;;;;5061360;28;20052;-71
2021/10/06 08:11:13;;;;;;;2.20;1.00;;;11.30;89.80;;;;;;5061561;28;20032;-71
2021/10/06 08:13:38;;;;;;;2.72;1.08;;;11.40;89.20;;;;;;5061603;28;20335;-71
2021/10/06 08:16:05;;;;;;;2.50;0.90;;;11.40;89.70;;;;;;5061673;28;20025;-70
2021/10/06 08:18:31;;;;;;;1.77;1.30;;;11.50;89.50;;;;;;5061525;28;20056;-71
2021/10/06 08:20:57;;;;;;;4.68;1.08;;;11.60;88.60;;;;;;5058233;28;20067;-71
2021/10/06 08:23:23;;;;;;;2.50;1.10;;;11.60;88.00;;;;;;5060007;28;20032;-71
2021/10/06 08:25:53;;;;;;;2.60;0.75;;;11.70;87.50;;;;;;5043953;28;20259;-71
2021/10/06 08:28:19;;;;;;;3.40;0.90;;;11.80;87.50;;;;;;5064752;28;20263;-71
2021/10/06 08:30:45;;;;;;;2.50;0.80;;;11.90;86.20;;;;;;5065300;28;20323;-71
2021/10/06 08:33:11;;;;;;;2.23;0.77;;;11.90;86.60;;;;;;5063971;28;20039;-71
2021/10/06 08:35:39;;;;;;;3.37;1.40;;;12.00;86.60;;;;;;5064890;28;20092;-71
2021/10/06 08:38:05;;;;;;;1.88;0.93;;;12.10;86.90;;;;;;5065170;28;20070;-71
2021/10/06 08:40:33;;;;;;;2.95;1.10;;;12.10;85.20;;;;;;5064008;28;20029;-71
2021/10/06 08:43:00;;;;;;;1.98;1.35;;;12.20;84.40;;;;;;5064828;28;20044;-71
2021/10/06 08:45:26;;;;;;;2.03;0.80;;;12.20;84.00;;;;;;5047628;28;20036;-71
2021/10/06 08:47:52;;;;;;;2.97;1.50;;;12.20;84.20;;;;;;5064888;28;20025;-71
2021/10/06 08:50:18;;;;;;;3.67;1.33;;;12.20;84.80;;;;;;5064465;28;20076;-70
2021/10/06 08:52:47;;;;;;;3.35;1.00;;;12.30;84.00;;;;;;5062237;28;20025;-71
2021/10/06 08:55:13;;;;;;;3.58;1.30;;;12.40;84.70;;;;;;5063630;28;20258;-70
2021/10/06 08:57:39;;;;;;;1.93;0.90;;;12.40;84.40;;;;;;5063500;28;20025;-70
2021/10/06 09:00:06;;;;;;;2.77;1.20;;;12.50;83.60;;;;;;5063340;28;20070;-70
2021/10/06 09:02:37;;;;;;;3.33;0.80;;;12.40;83.50;;;;;;5065399;28;20021;-70
2021/10/06 09:05:03;;;;;;;2.92;0.95;;;12.50;82.80;;;;;;5064670;28;20088;-72
2021/10/06 09:07:29;;;;;;;3.38;1.02;;;12.50;83.80;;;;;;5065969;28;20071;-72
2021/10/06 09:09:55;;;;;;;4.00;0.97;;;12.70;83.30;;;;;;5065117;28;20021;-70
2021/10/06 09:12:21;;;;;;;1.10;0.70;;;12.90;81.80;;;;;;5064583;28;20028;-70
2021/10/06 09:14:48;;;;;;;0.60;0.52;;;13.10;81.10;;;;;;5064520;28;20025;-70
2021/10/06 09:17:19;;;;;;;1.05;0.70;;;13.30;80.20;;;;;;5064547;28;20032;-69
2021/10/06 09:19:53;;;;;;;2.63;1.13;;;13.30;80.10;;;;;;5042423;28;20201;-71
2021/10/06 09:22:27;;;;;;;2.75;0.55;;;13.30;78.50;;;;;;5054089;28;20028;-71
2021/10/06 09:25:05;;;;;;;5.18;0.75;;;13.30;79.20;;;;;;5062797;28;20017;-72
2021/10/06 09:27:36;;;;;;;3.97;0.80;;;13.20;79.90;;;;;;5064223;28;20017;-72
2021/10/06 09:30:11;;;;;;;4.47;1.08;;;13.20;78.50;;;;;;5030490;28;20029;-71
2021/10/06 09:32:38;;;;;;;1.98;0.93;;;13.10;79.40;;;;;;5064149;28;20078;-71
2021/10/06 09:35:08;;;;;;;1.50;0.90;;;13.10;79.10;;;;;;5063745;28;20032;-70
2021/10/06 09:37:36;;;;;;;4.25;0.95;;;13.20;79.70;;;;;;5062633;28;20048;-70
2021/10/06 09:40:04;;;;;;;3.38;1.00;;;13.30;78.40;;;;;;5045941;28;20059;-71
2021/10/06 09:42:30;;;;;;;4.93;1.10;;;13.10;77.00;;;;;;5062746;28;20028;-71
2021/10/06 09:44:57;;;;;;;;;;;13.10;78.30;;;;;;5062589;28;20024;-72
2021/10/06 09:47:24;;;;;;;2.20;0.90;;;13.10;77.90;;;;;;5062961;28;20111;-72
2021/10/06 09:49:55;;;;;;;3.42;1.17;;;13.00;78.00;;;;;;5062312;28;20039;-72
2021/10/06 09:52:29;;;;;;;4.07;0.80;;;12.90;79.70;;;;;;5063322;28;20070;-72
2021/10/06 09:55:04;;;;;;;4.00;0.88;;;12.60;80.10;;;;;;5062305;28;20037;-72
2021/10/06 09:57:35;;;;;;;3.17;0.90;;;12.30;78.10;;;;;;5063866;28;20024;-72
2021/10/06 10:00:15;;;;;;;1.98;0.90;;;12.20;79.20;;;;;;5060749;28;20036;-72
2021/10/06 10:02:41;;;;;;;2.45;1.15;;;12.10;81.30;;;;;;5062409;28;20327;-72
2021/10/06 10:05:08;;;;;;;2.27;0.87;;;12.20;83.90;;;;;;5062620;28;20307;-71
2021/10/06 10:07:34;;;;;;;1.40;0.90;;;12.20;84.90;;;;;;5064696;28;20323;-72
2021/10/06 10:10:00;;;;;;;1.27;0.90;;;12.40;86.70;;;;;;5063542;28;20025;-72
2021/10/06 10:12:27;;;;;;;2.80;1.20;;;12.40;84.80;;;;;;5063298;28;20417;-72
2021/10/06 10:14:53;;;;;;;1.52;1.20;;;12.50;83.40;;;;;;5045510;28;20028;-71
2021/10/06 10:17:19;;;;;;;3.80;0.73;;;12.60;82.60;;;;;;5063084;28;20036;-70
2021/10/06 10:19:51;;;;;;;1.23;1.03;;;12.70;82.70;;;;;;5061130;28;20092;-72
2021/10/06 10:22:17;;;;;;;1.80;1.30;;;12.90;81.40;;;;;;5030586;28;20080;-71
2021/10/06 10:24:45;;;;;;;1.40;0.70;;;13.10;80.40;;;;;;5045261;28;20020;-71
2021/10/06 10:27:12;;;;;;;1.30;0.80;;;13.10;76.10;;;;;;5061805;28;20274;-71
2021/10/06 10:29:51;;;;;;;1.10;1.00;;;13.10;78.50;;;;;;5045421;28;20020;-71
2021/10/06 10:32:24;;;;;;;2.58;0.82;;;13.20;79.80;;;;;;5061900;28;20021;-71
2021/10/06 10:35:07;;;;;;;3.08;1.23;;;13.30;76.20;;;;;;5061231;28;20047;-71
2021/10/06 10:37:51;;;;;;;3.70;1.08;;;13.30;77.40;;;;;;5061652;28;20065;-73
2021/10/06 10:40:35;;;;;;;2.92;1.30;;;13.50;78.40;;;;;;5062773;28;20309;-70
2021/10/06 10:43:21;;;;;;;2.47;0.80;;;13.70;76.30;;;;;;5062848;28;20074;-70
2021/10/06 10:46:07;;;;;;;3.42;1.00;;;14.00;73.40;;;;;;5047725;28;20024;-70
2021/10/06 10:49:00;;;;;;;5.15;1.20;;;14.30;73.30;;;;;;5062669;28;20052;-70
2021/10/06 10:51:43;;;;;;;1.52;0.70;;;14.40;72.40;;;;;;5061896;28;20025;-71
2021/10/06 10:54:11;;;;;;;2.72;0.70;;;14.50;71.50;;;;;;5062351;28;20067;-72
2021/10/06 10:56:48;;;;;;;2.00;1.05;;;14.50;73.10;;;;;;5061712;28;20322;-72
2021/10/06 10:59:22;;;;;;;2.60;0.80;;;14.50;71.40;;;;;;5061638;28;20020;-71
2021/10/06 11:01:57;;;;;;;6.50;1.00;;;14.60;70.40;;;;;;5061382;28;20096;-71
2021/10/06 11:04:28;;;;;;;3.45;0.82;;;14.70;70.50;;;;;;5062127;28;20088;-71
2021/10/06 11:07:22;;;;;;;2.03;1.15;;;14.70;66.60;;;;;;5062490;28;20284;-71
2021/10/06 11:09:58;;;;;;;3.05;0.88;;;14.30;70.10;;;;;;5061201;28;20063;-71
2021/10/06 11:12:24;;;;;;;2.77;1.10;;;13.90;68.90;;;;;;5046232;28;20040;-71
2021/10/06 11:15:21;;;;;;;2.67;0.83;;;13.60;70.20;;;;;;5062091;28;20063;-71
2021/10/06 11:18:24;;;;;;;3.22;0.85;;;13.40;71.20;;;;;;5061188;28;20021;-72
2021/10/06 11:21:02;;;;;;;1.80;0.90;;;13.20;73.60;;;;;;5060429;28;20079;-72
2021/10/06 11:23:31;;;;;;;1.75;0.70;;;13.00;75.60;;;;;;5044458;28;20088;-72
2021/10/06 11:26:03;;;;;;;2.72;0.70;;;13.00;75.00;;;;;;5062237;28;20017;-72
2021/10/06 11:28:30;;;;;;;1.67;0.70;;;13.00;74.10;;;;;;5061983;28;20021;-72
2021/10/06 11:30:56;;;;;;;;;;;13.20;74.80;;;;;;5062597;28;20024;-72
2021/10/06 11:33:29;;;;;;;1.60;0.70;;;13.70;72.90;;;;;;5077404;28;19904;-72
2021/10/06 11:36:18;;;;;;;2.45;0.95;;;13.90;72.20;;;;;;5061901;28;20024;-70
2021/10/06 11:38:47;;;;;;;0.70;0.60;;;14.10;71.60;;;;;;5061945;28;20342;-71
2021/10/06 11:41:13;;;;;;;2.78;0.75;;;14.30;69.30;;;;;;5060854;28;20095;-70
2021/10/06 11:43:42;;;;;;;3.92;1.42;;;14.30;70.70;;;;;;5061837;28;20200;-71
2021/10/06 11:46:11;;;;;;;2.53;0.75;;;14.40;70.10;;;;;;5061016;28;20024;-71
2021/10/06 11:48:37;;;;;;;4.05;1.02;;;14.70;69.40;;;;;;5061937;28;20025;-71
2021/10/06 11:51:03;;;;;;;6.03;1.53;;;14.90;67.90;;;;;;5043974;28;20043;-71
2021/10/06 11:53:58;;;;;;;2.47;1.00;;;14.70;69.10;;;;;;5060528;28;20016;-71
2021/10/06 11:56:26;;;;;;;3.13;0.82;;;14.80;70.40;;;;;;5035663;28;20037;-71
2021/10/06 11:58:52;;;;;;;2.83;0.70;;;14.90;67.90;;;;;;5044443;28;20235;-71
2021/10/06 12:01:18;;;;;;;1.00;0.70;;;14.70;69.20;;;;;;5060715;28;20025;-71
2021/10/06 12:03:44;;;;;;;2.27;0.80;;;14.80;68.90;;;;;;5064458;28;20280;-71
2021/10/06 12:06:12;;;;;;;2.70;0.90;;;14.90;69.50;;;;;;5065568;28;20273;-71
2021/10/06 12:08:38;;;;;;;1.40;0.90;;;14.90;69.10;;;;;;5048096;28;20422;-71
2021/10/06 12:11:05;;;;;;;1.63;1.00;;;14.90;70.00;;;;;;5064696;28;20025;-72
2021/10/06 12:13:40;;;;;;;;;;;14.50;69.80;;;;;;5066065;28;20029;-71
2021/10/06 12:16:28;;;;;;;3.08;0.90;;;14.20;71.40;;;;;;5065801;28;20239;-70
2021/10/06 12:19:00;;;;;;;1.83;0.80;;;13.80;76.60;;;;;;5064507;28;20061;-72
2021/10/06 12:21:28;;;;;;;3.00;0.50;;;13.10;77.80;;;;;;5063907;28;20204;-71
2021/10/06 12:23:58;;;;;;;0.40;0.40;;;12.80;79.40;;;;;;5047749;28;20020;-71
2021/10/06 12:26:29;;;;;;;0.70;0.70;;;12.80;78.70;;;;;;5064830;28;20266;-71
2021/10/06 12:28:58;;;;;;;4.28;0.80;;;12.80;80.00;;;;;;5064627;28;20017;-71
2021/10/06 12:31:28;;;;;;;0.75;0.40;;;12.90;78.40;;;;;;5064530;28;20024;-71
2021/10/06 12:34:10;;;;;;;1.83;0.80;;;13.10;77.70;;;;;;5065348;28;20024;-72
2021/10/06 12:36:36;;;;;;;0.80;0.70;;;13.20;76.70;;;;;;5064211;28;20239;-71
2021/10/06 12:39:12;;;;;;;1.90;0.63;;;13.40;78.70;;;;;;5064271;28;20036;-72
2021/10/06 12:41:40;;;;;;;3.85;0.93;;;13.40;77.80;;;;;;5065010;28;20087;-72
2021/10/06 12:44:35;;;;;;;5.85;1.00;;;13.50;77.60;;;;;;5065233;28;20024;-71
2021/10/06 12:47:01;;;;;;;2.83;0.75;;;13.70;77.10;;;;;;5065350;28;20057;-71
2021/10/06 12:49:30;;;;;;;1.65;0.70;;;13.70;76.40;;;;;;5065556;28;20270;-71
2021/10/06 12:52:04;;;;;;;3.10;0.70;;;14.00;76.30;;;;;;5047804;28;20271;-71